Time;durP1;ratioP1;P1;durP2;ratioP2;P2;SDS_P1;SDS_P2;PMS_P1;PMS_P2;Temp;Humidity;BMP_temperature;BMP_pressure;BME280_temperature;BME280_humidity;BME280_pressure;Samples;Min_cycle;Max_cycle;Signal;HPM_P1;HPM_P2
2021/12/04 00:02:34;;;;;;;22.30;13.85;;;;;;;6.13;100.00;100898.38;5094787;28;20108;-69
2021/12/04 00:05:21;;;;;;;20.00;14.13;;;;;;;5.96;100.00;100908.72;5094777;28;20345;-71
2021/12/04 00:08:07;;;;;;;21.52;14.57;;;;;;;5.95;100.00;100906.13;5094189;28;20036;-70
2021/12/04 00:10:53;;;;;;;25.98;17.02;;;;;;;5.65;100.00;100905.94;5094839;28;20123;-69
2021/12/04 00:13:38;;;;;;;26.55;17.10;;;;;;;5.74;100.00;100908.59;5078889;28;20455;-69
2021/12/04 00:16:24;;;;;;;27.80;18.00;;;;;;;5.64;100.00;100912.88;5094272;28;20032;-69
2021/12/04 00:19:10;;;;;;;26.92;17.67;;;;;;;5.47;100.00;100904.13;5094031;28;20046;-71
2021/12/04 00:21:57;;;;;;;28.45;17.65;;;;;;;5.47;100.00;100912.75;5093461;28;20080;-69
2021/12/04 00:24:43;;;;;;;30.77;19.30;;;;;;;5.55;100.00;100914.56;5093445;28;20039;-70
2021/12/04 00:27:29;;;;;;;29.60;17.35;;;;;;;5.39;100.00;100919.63;5094089;28;20028;-69
2021/12/04 00:30:15;;;;;;;30.85;19.77;;;;;;;5.33;100.00;100911.81;5092864;28;20031;-69
2021/12/04 00:33:16;;;;;;;33.45;19.52;;;;;;;5.65;100.00;100917.22;5094538;28;20023;-69
2021/12/04 00:36:06;;;;;;;32.22;20.25;;;;;;;5.39;100.00;100917.03;5094453;28;20020;-69
2021/12/04 00:51:12;;;;;;;35.22;22.80;;;;;;;5.14;100.00;100929.84;5094486;28;20482;-69
2021/12/04 00:53:58;;;;;;;33.00;21.80;;;;;;;4.99;100.00;100921.97;5093264;28;20067;-68
2021/12/04 00:56:44;;;;;;;37.95;23.45;;;;;;;5.38;100.00;100921.38;5094438;28;20035;-68
2021/12/04 00:59:30;;;;;;;37.97;23.67;;;;;;;5.20;100.00;100912.56;5094608;28;20031;-69
2021/12/04 01:02:20;;;;;;;34.58;22.90;;;;;;;4.97;100.00;100910.69;5079416;28;20020;-68
2021/12/04 01:05:06;;;;;;;34.97;22.90;;;;;;;5.44;100.00;100907.53;5094507;28;20038;-68
2021/12/04 01:07:52;;;;;;;34.42;23.27;;;;;;;5.08;100.00;100909.91;5078448;28;20024;-68
2021/12/04 01:10:38;;;;;;;39.30;24.70;;;;;;;5.14;100.00;100912.53;5093735;28;20028;-69
2021/12/04 01:13:24;;;;;;;37.88;23.42;;;;;;;5.23;100.00;100903.97;5093146;28;20024;-68
2021/12/04 01:16:11;;;;;;;38.35;24.67;;;;;;;4.93;100.00;100906.31;5093604;28;20028;-68
2021/12/04 01:18:57;;;;;;;41.45;26.25;;;;;;;4.96;100.00;100899.44;5094243;28;20077;-68
2021/12/04 01:21:43;;;;;;;39.90;25.23;;;;;;;4.88;100.00;100901.09;5094205;28;20043;-69
2021/12/04 01:24:28;;;;;;;42.85;26.80;;;;;;;5.15;100.00;100898.69;5093537;28;20028;-69
2021/12/04 01:27:14;;;;;;;46.28;28.27;;;;;;;5.06;100.00;100900.34;5093016;28;20115;-68
2021/12/04 01:30:00;;;;;;;45.88;27.48;;;;;;;4.91;100.00;100897.66;5092420;28;20024;-69
2021/12/04 01:32:46;;;;;;;45.80;27.40;;;;;;;4.93;100.00;100909.78;5092901;28;20024;-68
2021/12/04 01:35:31;;;;;;;46.88;27.40;;;;;;;4.78;100.00;100916.56;5093341;28;20341;-69
2021/12/04 01:38:17;;;;;;;42.72;27.35;;;;;;;4.63;100.00;100919.03;5092693;28;20031;-68
2021/12/04 01:41:03;;;;;;;42.35;25.48;;;;;;;4.74;100.00;100920.88;5092951;28;20028;-69
2021/12/04 01:43:49;;;;;;;41.13;25.13;;;;;;;4.79;100.00;100910.53;5093370;28;20039;-69
2021/12/04 01:46:35;;;;;;;41.95;25.10;;;;;;;5.05;100.00;100906.41;5094092;28;20097;-68
2021/12/04 01:49:21;;;;;;;38.17;23.48;;;;;;;4.97;100.00;100908.06;5097020;28;20104;-68
2021/12/04 01:52:08;;;;;;;35.47;23.25;;;;;;;5.01;100.00;100907.25;5096819;28;20024;-69
2021/12/04 01:54:54;;;;;;;39.65;24.48;;;;;;;4.53;100.00;100907.69;5095861;28;20107;-68
2021/12/04 01:57:40;;;;;;;41.65;23.98;;;;;;;4.79;100.00;100913.13;5096476;28;20028;-69
2021/12/04 02:00:26;;;;;;;40.78;24.52;;;;;;;4.89;100.00;100905.44;5096869;28;20036;-69
2021/12/04 02:03:16;;;;;;;38.97;24.63;;;;;;;4.49;100.00;100911.13;5096433;28;20021;-69
2021/12/04 02:06:02;;;;;;;37.72;24.13;;;;;;;4.61;100.00;100907.75;5096283;28;20058;-68
2021/12/04 02:08:48;;;;;;;37.35;23.60;;;;;;;4.36;100.00;100909.25;5096204;28;20024;-69
2021/12/04 02:11:34;;;;;;;40.70;22.83;;;;;;;4.33;100.00;100908.34;5096719;28;20016;-70
2021/12/04 02:14:20;;;;;;;39.05;23.83;;;;;;;4.74;100.00;100905.28;5096472;28;20372;-68
2021/12/04 02:17:08;;;;;;;38.88;24.52;;;;;;;4.60;100.00;100899.13;5096889;28;20153;-69
2021/12/04 02:19:53;;;;;;;41.83;25.05;;;;;;;4.54;100.00;100888.66;5095619;28;20024;-69
2021/12/04 02:22:39;;;;;;;41.35;25.17;;;;;;;4.64;100.00;100874.06;5096557;28;20031;-68
2021/12/04 02:25:25;;;;;;;38.42;23.55;;;;;;;4.46;100.00;100879.09;5096297;28;20024;-68
2021/12/04 02:28:12;;;;;;;41.22;22.52;;;;;;;4.44;100.00;100881.66;5096349;28;20047;-69
2021/12/04 02:30:58;;;;;;;36.60;22.15;;;;;;;4.31;100.00;100879.78;5067693;28;20031;-68
2021/12/04 02:33:43;;;;;;;34.97;21.58;;;;;;;4.54;100.00;100883.47;5096716;28;20356;-69
2021/12/04 02:36:29;;;;;;;36.40;23.65;;;;;;;4.44;100.00;100876.47;5095927;28;20035;-69
2021/12/04 02:39:29;;;;;;;40.65;24.25;;;;;;;4.27;100.00;100879.75;5096067;28;20376;-69
2021/12/04 02:42:22;;;;;;;43.92;25.30;;;;;;;4.42;100.00;100873.00;5095481;28;20032;-68
2021/12/04 02:45:09;;;;;;;43.60;26.67;;;;;;;4.17;100.00;100868.41;5095161;28;20024;-68
2021/12/04 02:47:56;;;;;;;44.90;27.15;;;;;;;4.90;100.00;100873.41;5096056;28;20042;-69
2021/12/04 02:50:41;;;;;;;43.03;25.77;;;;;;;4.54;100.00;100867.91;5080420;28;20027;-68
2021/12/04 02:53:27;;;;;;;47.03;26.65;;;;;;;4.43;100.00;100868.69;5096065;28;20040;-69
2021/12/04 02:56:13;;;;;;;42.75;24.60;;;;;;;4.65;100.00;100866.28;5095588;28;20020;-69
2021/12/04 02:59:03;;;;;;;37.95;22.77;;;;;;;4.43;100.00;100859.16;5095897;28;20028;-69
2021/12/04 03:01:53;;;;;;;40.90;25.10;;;;;;;4.53;100.00;100862.72;5095526;28;20023;-69
2021/12/04 03:04:39;;;;;;;37.35;23.23;;;;;;;4.50;100.00;100858.38;5094482;28;20028;-68
2021/12/04 03:07:25;;;;;;;47.78;24.67;;;;;;;4.21;100.00;100857.22;5094846;28;20468;-69
2021/12/04 03:10:10;;;;;;;35.63;21.15;;;;;;;4.09;100.00;100857.09;5095372;28;20031;-68
2021/12/04 03:12:56;;;;;;;46.30;24.33;;;;;;;4.20;100.00;100858.09;5094776;28;20089;-68
2021/12/04 03:15:44;;;;;;;38.03;21.45;;;;;;;4.27;100.00;100857.28;5095637;28;20494;-69
2021/12/04 03:18:30;;;;;;;33.58;21.02;;;;;;;4.13;100.00;100856.28;5094797;28;20085;-69
2021/12/04 03:21:16;;;;;;;38.05;21.85;;;;;;;4.06;100.00;100856.22;5094371;28;20367;-70
2021/12/04 03:24:05;;;;;;;35.97;20.40;;;;;;;3.79;100.00;100861.06;5094335;28;20028;-67
2021/12/04 03:26:51;;;;;;;32.05;18.20;;;;;;;3.97;100.00;100869.94;5095399;28;20035;-69
2021/12/04 03:29:42;;;;;;;26.77;16.65;;;;;;;3.79;100.00;100874.03;5095465;28;20502;-68
2021/12/04 03:40:03;;;;;;;29.33;18.00;;;;;;;4.39;100.00;100883.31;5095733;28;20408;-68
2021/12/04 03:41:35;;;;;;;28.60;17.27;;;;;;;3.98;100.00;100866.47;5095080;28;20024;-69
2021/12/04 03:44:21;;;;;;;29.73;18.33;;;;;;;3.84;100.00;100846.44;5094173;28;20421;-69
2021/12/04 03:47:09;;;;;;;33.85;18.95;;;;;;;4.04;100.00;100845.81;5094768;28;20422;-69
2021/12/04 03:49:54;;;;;;;35.17;19.85;;;;;;;3.91;100.00;100840.47;5079235;28;20024;-68
2021/12/04 03:52:40;;;;;;;36.03;21.15;;;;;;;4.08;100.00;100845.00;5079237;28;20024;-69
2021/12/04 03:55:26;;;;;;;40.38;21.67;;;;;;;4.35;100.00;100847.84;5094552;28;20031;-70
2021/12/04 03:58:12;;;;;;;32.25;19.63;;;;;;;3.95;100.00;100863.00;5095012;28;20031;-70
2021/12/04 04:00:58;;;;;;;38.25;20.20;;;;;;;4.05;100.00;100863.09;5094294;28;20096;-69
2021/12/04 04:03:44;;;;;;;37.05;20.33;;;;;;;3.91;100.00;100854.28;5094686;28;20031;-68
2021/12/04 04:06:30;;;;;;;39.72;22.42;;;;;;;4.36;100.00;100861.69;5079433;28;20039;-68
2021/12/04 04:10:05;;;;;;;39.55;20.35;;;;;;;4.09;100.00;100864.00;5078938;28;20448;-69
2021/12/04 04:12:51;;;;;;;42.15;22.08;;;;;;;4.12;100.00;100870.09;5094096;28;20028;-68
2021/12/04 04:15:37;;;;;;;34.83;20.30;;;;;;;4.20;100.00;100871.06;5079753;28;20089;-69
2021/12/04 04:18:23;;;;;;;36.38;19.90;;;;;;;4.01;100.00;100879.47;5093652;28;20028;-68
2021/12/04 04:21:09;;;;;;;34.50;20.38;;;;;;;4.13;100.00;100895.16;5093329;28;20093;-68
2021/12/04 04:23:55;;;;;;;32.90;19.45;;;;;;;4.01;100.00;100897.63;5094027;28;20042;-69
2021/12/04 04:26:42;;;;;;;31.55;17.17;;;;;;;3.77;100.00;100896.44;5094095;28;20028;-68
2021/12/04 04:29:28;;;;;;;23.60;14.38;;;;;;;3.81;100.00;100888.72;5093279;28;20111;-69
2021/12/04 04:32:14;;;;;;;24.58;14.70;;;;;;;3.63;100.00;100901.47;5093442;28;20078;-68
2021/12/04 04:35:08;;;;;;;27.60;16.48;;;;;;;4.18;100.00;100914.22;5094321;28;20023;-67
2021/12/04 05:02:26;;;;;;;27.33;16.38;;;;;;;4.18;100.00;100934.97;5073842;28;20059;-68
2021/12/04 05:11:36;;;;;;;22.60;13.80;;;;;;;3.83;100.00;100951.84;5074198;28;20021;-68
2021/12/04 05:14:21;;;;;;;22.85;14.30;;;;;;;3.82;100.00;100957.00;5073205;28;20033;-69
2021/12/04 05:17:14;;;;;;;20.90;14.00;;;;;;;4.01;100.00;100961.53;5073288;28;20046;-67
2021/12/04 05:20:00;;;;;;;23.13;14.18;;;;;;;3.91;100.00;100955.38;5058206;28;20469;-68
2021/12/04 05:22:46;;;;;;;24.23;14.25;;;;;;;3.60;100.00;100953.22;5075926;28;20420;-69
2021/12/04 05:25:33;;;;;;;21.90;13.25;;;;;;;3.56;100.00;100950.56;5076362;28;20040;-70
2021/12/04 05:28:19;;;;;;;21.02;13.02;;;;;;;3.41;100.00;100946.03;5076696;28;20428;-68
2021/12/04 05:31:05;;;;;;;21.80;13.65;;;;;;;3.60;100.00;100968.78;5078002;28;20028;-68
2021/12/04 05:33:51;;;;;;;22.52;14.55;;;;;;;3.61;100.00;100962.75;5063378;28;20310;-68
2021/12/04 05:36:37;;;;;;;23.60;14.73;;;;;;;3.92;100.00;100967.50;5076483;28;20361;-69
2021/12/04 05:39:23;;;;;;;22.38;14.00;;;;;;;3.72;100.00;100968.94;5089098;28;20055;-69
2021/12/04 05:42:08;;;;;;;22.90;14.32;;;;;;;3.93;100.00;100974.41;5097548;28;20020;-69
2021/12/04 05:44:54;;;;;;;25.23;14.40;;;;;;;3.74;100.00;100976.75;5097598;28;20024;-69
2021/12/04 05:47:46;;;;;;;23.42;14.43;;;;;;;3.53;100.00;100990.25;5097468;28;20478;-69
2021/12/04 05:50:56;;;;;;;24.35;15.45;;;;;;;3.65;100.00;100987.84;5096857;28;20085;-68
2021/12/04 05:56:36;;;;;;;24.08;14.30;;;;;;;3.62;100.00;100987.78;5096074;28;20024;-69
2021/12/04 05:59:22;;;;;;;22.45;13.93;;;;;;;3.19;100.00;100974.16;5080576;28;20024;-68
2021/12/04 06:02:07;;;;;;;22.27;14.15;;;;;;;3.14;100.00;100961.13;5082194;28;20100;-68
2021/12/04 06:04:53;;;;;;;22.10;13.45;;;;;;;2.89;100.00;100955.56;5096870;28;20024;-68
2021/12/04 06:07:40;;;;;;;24.23;14.52;;;;;;;2.74;100.00;100952.69;5096515;28;20043;-68
2021/12/04 06:10:25;;;;;;;24.65;15.02;;;;;;;2.93;100.00;100958.19;5095832;28;20028;-69
2021/12/04 06:13:12;;;;;;;26.02;14.48;;;;;;;2.93;100.00;100965.97;5096575;28;20034;-68
2021/12/04 06:15:57;;;;;;;23.67;13.98;;;;;;;2.95;100.00;100964.28;5096551;28;20032;-69
2021/12/04 06:18:47;;;;;;;24.13;14.05;;;;;;;3.13;100.00;100963.72;5097811;28;20047;-68
2021/12/04 06:24:37;;;;;;;27.83;15.35;;;;;;;2.96;100.00;100949.63;5096206;28;20100;-68
2021/12/04 06:27:24;;;;;;;23.00;14.60;;;;;;;3.28;100.00;100949.28;5096058;28;20028;-69
2021/12/04 06:30:13;;;;;;;25.08;15.27;;;;;;;3.04;100.00;100956.66;5096080;28;20042;-68
2021/12/04 06:32:58;;;;;;;34.13;17.60;;;;;;;3.64;100.00;100962.78;5096264;28;20419;-69
2021/12/04 06:35:46;;;;;;;28.88;16.30;;;;;;;3.81;100.00;100963.88;5082111;28;20036;-67
2021/12/04 06:38:32;;;;;;;33.55;19.27;;;;;;;3.57;100.00;100966.13;5095203;28;20130;-69
2021/12/04 06:41:18;;;;;;;30.80;17.33;;;;;;;3.81;100.00;100963.00;5096606;28;20032;-69
2021/12/04 06:44:04;;;;;;;31.50;17.52;;;;;;;3.88;100.00;100959.66;5095819;28;20020;-68
2021/12/04 06:46:50;;;;;;;22.67;14.25;;;;;;;3.67;100.00;100972.31;5081895;28;20103;-67
2021/12/04 06:49:40;;;;;;;22.70;13.48;;;;;;;3.81;100.00;100981.13;5081087;28;20062;-69
2021/12/04 06:52:27;;;;;;;24.73;14.52;;;;;;;3.74;100.00;100966.38;5094738;28;20356;-68
2021/12/04 06:55:16;;;;;;;24.33;13.52;;;;;;;3.05;100.00;100966.16;5094868;28;20448;-69
2021/12/04 06:58:02;;;;;;;22.67;13.57;;;;;;;3.23;100.00;100976.84;5080301;28;20039;-68
2021/12/04 07:00:48;;;;;;;21.15;13.43;;;;;;;3.34;100.00;100992.53;5080068;28;20035;-69
2021/12/04 07:03:35;;;;;;;24.05;14.45;;;;;;;3.41;100.00;101020.25;5096247;28;20020;-68
2021/12/04 07:06:20;;;;;;;25.67;15.73;;;;;;;3.86;100.00;101010.59;5094775;28;20032;-69
2021/12/04 07:09:06;;;;;;;25.17;15.13;;;;;;;3.71;100.00;101008.66;5095949;28;20089;-69
2021/12/04 07:11:53;;;;;;;31.90;17.15;;;;;;;3.93;100.00;101000.31;5096394;28;20456;-69
2021/12/04 07:14:38;;;;;;;31.85;18.13;;;;;;;4.03;100.00;100998.75;5095250;28;20103;-68
2021/12/04 07:17:24;;;;;;;27.08;15.50;;;;;;;3.57;100.00;100981.66;5095172;28;20373;-69
2021/12/04 07:20:11;;;;;;;29.98;17.75;;;;;;;3.91;100.00;100963.13;5079838;28;20128;-69
2021/12/04 07:22:59;;;;;;;25.95;16.40;;;;;;;3.23;100.00;100958.72;5081149;28;20405;-69
2021/12/04 07:25:45;;;;;;;27.20;16.45;;;;;;;3.42;100.00;100976.25;5080063;28;20111;-69
2021/12/04 07:28:30;;;;;;;28.60;17.20;;;;;;;3.43;100.00;100990.09;5094429;28;20031;-69
2021/12/04 07:31:16;;;;;;;30.05;17.77;;;;;;;3.02;100.00;101002.34;5080273;28;20020;-69
2021/12/04 07:34:02;;;;;;;39.42;20.33;;;;;;;3.24;100.00;101004.47;5094524;28;20114;-69
2021/12/04 07:36:48;;;;;;;36.40;20.08;;;;;;;3.73;100.00;100991.41;5094935;28;20032;-68
2021/12/04 07:39:34;;;;;;;34.10;18.73;;;;;;;3.51;100.00;100999.72;5079056;28;20055;-68
2021/12/04 07:42:19;;;;;;;32.28;19.15;;;;;;;3.24;100.00;100996.69;5080180;28;20032;-69
2021/12/04 07:45:07;;;;;;;38.42;21.02;;;;;;;3.56;100.00;100994.59;5094601;28;20098;-69
2021/12/04 07:47:52;;;;;;;35.17;21.13;;;;;;;3.30;100.00;100988.16;5095130;28;20467;-68
2021/12/04 07:50:38;;;;;;;34.50;19.40;;;;;;;3.28;100.00;100982.94;5094460;28;20016;-69
2021/12/04 07:53:24;;;;;;;36.58;18.45;;;;;;;3.67;100.00;100968.03;5080450;28;20039;-69
2021/12/04 07:56:10;;;;;;;33.10;19.50;;;;;;;3.86;100.00;100957.03;5093268;28;20023;-68
2021/12/04 07:58:56;;;;;;;36.65;19.80;;;;;;;3.82;100.00;100955.25;5093575;28;20034;-68
2021/12/04 08:01:42;;;;;;;38.97;19.95;;;;;;;3.62;100.00;100950.66;5079479;28;20046;-69
2021/12/04 08:04:27;;;;;;;29.92;17.02;;;;;;;3.46;100.00;100959.91;5093374;28;20031;-68
2021/12/04 08:07:14;;;;;;;32.75;17.80;;;;;;;3.55;100.00;100969.56;5080615;28;20086;-69
2021/12/04 08:10:00;;;;;;;35.28;18.92;;;;;;;3.56;100.00;100961.81;5080253;28;20024;-69
2021/12/04 08:12:46;;;;;;;31.60;16.33;;;;;;;3.06;100.00;100967.91;5093585;28;20024;-69
2021/12/04 08:15:35;;;;;;;31.85;17.38;;;;;;;3.14;100.00;100958.53;5093822;28;20105;-68
2021/12/04 08:18:21;;;;;;;28.40;16.10;;;;;;;3.34;100.00;100953.69;5093139;28;20028;-69
2021/12/04 08:21:08;;;;;;;32.00;17.58;;;;;;;3.62;100.00;100953.25;5094373;28;20035;-68
2021/12/04 08:23:53;;;;;;;35.70;18.98;;;;;;;3.79;100.00;100944.88;5094165;28;20046;-69
2021/12/04 08:26:40;;;;;;;28.92;17.73;;;;;;;4.08;100.00;100929.66;5094445;28;20039;-69
2021/12/04 08:29:26;;;;;;;26.42;16.15;;;;;;;4.08;100.00;100915.00;5080885;28;20031;-69
2021/12/04 08:32:12;;;;;;;25.05;15.93;;;;;;;4.66;100.00;100912.13;5092696;28;20102;-69
2021/12/04 08:34:57;;;;;;;23.77;15.10;;;;;;;4.43;100.00;100892.88;5093473;28;20032;-68
2021/12/04 08:37:44;;;;;;;23.98;15.88;;;;;;;4.95;100.00;100884.69;5093660;28;20116;-69
2021/12/04 08:40:30;;;;;;;29.45;16.83;;;;;;;4.27;100.00;100890.97;5092752;28;20036;-68
2021/12/04 08:43:16;;;;;;;25.08;15.95;;;;;;;4.30;100.00;100888.44;5093928;28;20461;-69
2021/12/04 08:46:03;;;;;;;28.65;17.77;;;;;;;4.48;100.00;100898.13;5092460;28;20036;-69
2021/12/04 08:48:51;;;;;;;35.15;22.90;;;;;;;4.86;100.00;100897.59;5094152;28;20020;-69
2021/12/04 08:51:37;;;;;;;26.92;17.17;;;;;;;5.32;100.00;100893.63;5092705;28;20030;-68
2021/12/04 08:54:23;;;;;;;26.10;16.15;;;;;;;4.65;100.00;100912.13;5093651;28;20032;-69
2021/12/04 08:57:08;;;;;;;24.85;15.75;;;;;;;4.11;100.00;100912.41;5097625;28;20027;-69
2021/12/04 08:59:54;;;;;;;26.63;16.63;;;;;;;4.70;100.00;100913.03;5098029;28;20357;-69
2021/12/04 09:02:40;;;;;;;25.80;17.25;;;;;;;4.52;100.00;100918.94;5097484;28;20103;-70
2021/12/04 09:05:26;;;;;;;27.63;16.08;;;;;;;4.76;100.00;100921.75;5097957;28;20028;-69
2021/12/04 09:08:13;;;;;;;24.23;14.95;;;;;;;4.70;100.00;100920.81;5097371;28;20020;-69
2021/12/04 09:11:01;;;;;;;23.67;14.77;;;;;;;3.99;100.00;100914.84;5098246;28;20488;-70
2021/12/04 09:13:48;;;;;;;25.45;15.55;;;;;;;4.24;100.00;100910.84;5097463;28;20051;-69
2021/12/04 09:16:34;;;;;;;28.48;17.45;;;;;;;4.50;100.00;100924.94;5098792;28;20097;-69
2021/12/04 09:19:22;;;;;;;26.92;16.33;;;;;;;4.50;100.00;100911.97;5096399;28;20028;-69
2021/12/04 09:22:15;;;;;;;36.33;20.80;;;;;;;4.27;100.00;100903.94;5096560;28;20024;-68
2021/12/04 09:25:04;;;;;;;44.42;24.05;;;;;;;4.47;100.00;100907.63;5097317;28;20031;-69
2021/12/04 10:02:09;;;;;;;30.90;19.02;;;;;;;5.97;100.00;100892.25;5096560;28;20032;-69
2021/12/04 10:34:38;;;;;;;39.42;23.85;;;;;;;4.85;100.00;100895.00;5096873;28;20047;-69
2021/12/04 10:37:27;;;;;;;36.22;22.27;;;;;;;4.52;100.00;100890.41;5095859;28;20020;-70
2021/12/04 10:40:14;;;;;;;35.28;21.83;;;;;;;5.07;100.00;100887.38;5094678;28;20059;-69
2021/12/04 10:43:01;;;;;;;36.90;21.58;;;;;;;5.43;100.00;100891.97;5081850;28;20426;-69
2021/12/04 10:45:53;;;;;;;40.00;23.48;;;;;;;5.23;100.00;100878.00;5095259;28;20439;-70
2021/12/04 10:48:46;;;;;;;37.20;22.45;;;;;;;4.93;100.00;100867.38;5094837;28;20031;-70
2021/12/04 10:51:50;;;;;;;33.72;21.08;;;;;;;4.70;100.00;100868.91;5095829;28;20468;-69
2021/12/04 10:54:39;;;;;;;42.00;24.15;;;;;;;4.80;100.00;100875.94;5081089;28;20056;-69
2021/12/04 10:57:51;;;;;;;42.80;24.10;;;;;;;4.25;100.00;100874.56;5094500;28;20024;-69
2021/12/04 11:06:47;;;;;;;44.92;25.30;;;;;;;5.03;100.00;100827.66;5094967;28;20032;-70
2021/12/04 11:19:43;;;;;;;43.72;24.23;;;;;;;5.11;100.00;100838.97;5094432;28;20110;-70
2021/12/04 11:44:06;;;;;;;36.90;20.63;;;;;;;4.44;100.00;100829.78;5094748;28;20054;-70
2021/12/04 11:46:56;;;;;;;32.95;19.90;;;;;;;4.94;100.00;100823.25;5093555;28;20036;-69
2021/12/04 11:49:42;;;;;;;35.47;20.63;;;;;;;5.22;100.00;100825.16;5093475;28;20020;-70
2021/12/04 11:52:28;;;;;;;36.63;22.45;;;;;;;5.47;100.00;100823.56;5093715;28;20129;-69
2021/12/04 11:55:19;;;;;;;32.08;20.08;;;;;;;5.42;100.00;100821.81;5094431;28;20056;-70
2021/12/04 11:58:26;;;;;;;33.17;19.33;;;;;;;5.78;100.00;100827.16;5081893;28;20031;-70
2021/12/04 12:01:31;;;;;;;29.20;17.95;;;;;;;5.29;100.00;100826.06;5094378;28;20028;-69
2021/12/04 12:04:17;;;;;;;28.85;17.75;;;;;;;5.06;100.00;100836.31;5093786;28;20075;-69
2021/12/04 12:07:31;;;;;;;30.00;17.67;;;;;;;5.81;100.00;100833.25;5079617;28;20111;-70
2021/12/04 12:10:17;;;;;;;30.08;17.88;;;;;;;5.69;100.00;100833.19;5094364;28;20042;-69
2021/12/04 12:13:06;;;;;;;29.73;18.90;;;;;;;6.09;100.00;100840.28;5094220;28;20478;-70
2021/12/04 12:16:13;;;;;;;29.15;18.55;;;;;;;5.99;100.00;100838.50;5094414;28;20032;-69
2021/12/04 12:19:21;;;;;;;30.40;17.55;;;;;;;5.16;100.00;100839.84;5080498;28;20471;-69
2021/12/04 12:22:22;;;;;;;25.13;16.25;;;;;;;5.04;100.00;100831.97;5094579;28;20130;-69
2021/12/04 12:26:08;;;;;;;28.35;17.38;;;;;;;5.08;100.00;100831.16;5078152;28;20024;-69
2021/12/04 12:37:27;;;;;;;28.80;17.70;;;;;;;6.13;100.00;100841.16;5093740;28;20062;-70
2021/12/04 12:40:14;;;;;;;31.38;19.58;;;;;;;5.99;100.00;100843.72;5093076;28;20380;-72
2021/12/04 12:43:16;;;;;;;29.00;18.38;;;;;;;6.12;100.00;100840.31;5079358;28;20362;-69
2021/12/04 12:46:01;;;;;;;35.17;22.63;;;;;;;6.22;100.00;100841.19;5094220;28;20394;-70
2021/12/04 12:48:55;;;;;;;29.08;18.00;;;;;;;5.56;100.00;100836.59;5094083;28;20173;-70
2021/12/04 12:51:45;;;;;;;28.77;18.13;;;;;;;5.55;100.00;100839.19;5078088;28;20059;-73
2021/12/04 12:54:38;;;;;;;32.83;19.60;;;;;;;5.96;100.00;100845.44;5092871;28;20043;-70
2021/12/04 12:57:27;;;;;;;36.97;21.52;;;;;;;5.46;100.00;100849.56;5093543;28;20085;-70
2021/12/04 13:12:25;;;;;;;36.33;20.58;;;;;;;5.83;100.00;100825.47;5093711;28;20028;-70
2021/12/04 13:15:12;;;;;;;36.53;20.30;;;;;;;5.66;100.00;100825.38;5079431;28;20028;-69
2021/12/04 13:18:21;;;;;;;39.60;21.90;;;;;;;5.63;100.00;100829.69;5093853;28;20456;-70
2021/12/04 13:21:09;;;;;;;40.92;22.20;;;;;;;5.40;100.00;100830.44;5092605;28;20035;-69
2021/12/04 13:23:57;;;;;;;41.10;22.83;;;;;;;4.78;100.00;100821.41;5094595;28;20020;-69
2021/12/04 13:26:48;;;;;;;39.65;22.13;;;;;;;5.29;100.00;100816.56;5092555;28;20107;-70
2021/12/04 13:29:34;;;;;;;33.80;20.92;;;;;;;5.18;100.00;100825.13;5079035;28;20031;-70
2021/12/04 13:32:32;;;;;;;37.80;23.38;;;;;;;4.83;100.00;100827.50;5092150;28;20028;-68
2021/12/04 13:35:22;;;;;;;37.92;23.40;;;;;;;5.22;100.00;100838.16;5094000;28;20019;-69
2021/12/04 13:38:08;;;;;;;34.40;20.90;;;;;;;5.43;100.00;100843.47;5094127;28;20369;-70
2021/12/04 13:40:54;;;;;;;39.05;22.35;;;;;;;5.79;100.00;100834.09;5093171;28;20036;-69
2021/12/04 13:43:40;;;;;;;31.92;18.95;;;;;;;5.90;100.00;100830.69;5096146;28;20024;-70
2021/12/04 13:46:27;;;;;;;30.30;19.25;;;;;;;5.96;100.00;100833.31;5097138;28;20400;-70
2021/12/04 13:49:16;;;;;;;30.48;18.15;;;;;;;6.00;100.00;100827.28;5095787;28;20038;-69
2021/12/04 13:52:09;;;;;;;35.28;19.73;;;;;;;5.73;100.00;100823.66;5096230;28;20020;-69
2021/12/04 13:55:09;;;;;;;32.50;18.55;;;;;;;5.61;100.00;100819.28;5097160;28;20028;-69
2021/12/04 13:57:57;;;;;;;28.92;18.27;;;;;;;5.64;100.00;100811.53;5095875;28;20032;-70
2021/12/04 14:00:44;;;;;;;31.17;19.88;;;;;;;5.49;100.00;100814.03;5096681;28;20097;-69
2021/12/04 14:03:31;;;;;;;30.38;19.08;;;;;;;5.63;100.00;100808.91;5095855;28;20028;-70
2021/12/04 14:06:19;;;;;;;33.53;19.15;;;;;;;5.58;100.00;100800.22;5095503;28;20093;-69
2021/12/04 14:09:07;;;;;;;32.05;19.15;;;;;;;6.05;100.00;100802.13;5080650;28;20031;-70
2021/12/04 14:11:53;;;;;;;33.95;19.95;;;;;;;5.83;100.00;100802.94;5095442;28;20028;-70
2021/12/04 14:14:39;;;;;;;34.30;21.08;;;;;;;5.43;100.00;100808.84;5095449;28;20070;-70
2021/12/04 14:17:25;;;;;;;36.65;21.55;;;;;;;5.72;100.00;100812.41;5096604;28;20028;-70
2021/12/04 14:20:20;;;;;;;38.03;22.50;;;;;;;6.11;100.00;100820.34;5081345;28;20060;-70
2021/12/04 14:23:07;;;;;;;42.53;23.85;;;;;;;6.25;100.00;100817.75;5096562;28;20436;-70
2021/12/04 14:25:55;;;;;;;40.80;24.08;;;;;;;6.28;100.00;100820.38;5082493;28;20032;-69
2021/12/04 14:28:44;;;;;;;41.72;24.90;;;;;;;6.66;100.00;100816.06;5096091;28;20039;-71
2021/12/04 14:31:32;;;;;;;40.38;24.70;;;;;;;6.24;100.00;100816.03;5095021;28;20024;-70
2021/12/04 14:34:25;;;;;;;40.63;23.65;;;;;;;6.32;100.00;100809.09;5096765;28;20032;-70
2021/12/04 14:37:16;;;;;;;38.63;22.83;;;;;;;6.29;100.00;100820.38;5095967;28;20059;-70
2021/12/04 14:40:05;;;;;;;38.20;23.40;;;;;;;6.48;100.00;100821.25;5094628;28;20054;-70
2021/12/04 14:42:51;;;;;;;34.38;20.85;;;;;;;6.01;100.00;100826.41;5095309;28;20027;-71
2021/12/04 14:45:40;;;;;;;31.77;19.27;;;;;;;6.03;100.00;100829.00;5095770;28;20117;-70
2021/12/04 14:48:36;;;;;;;34.95;21.02;;;;;;;6.35;100.00;100827.34;5095573;28;20028;-70
2021/12/04 14:51:22;;;;;;;34.28;21.40;;;;;;;6.25;100.00;100825.56;5096343;28;20020;-70
2021/12/04 14:54:09;;;;;;;37.75;23.73;;;;;;;6.64;100.00;100821.28;5096098;28;20028;-69
2021/12/04 14:56:54;;;;;;;35.22;21.48;;;;;;;5.76;100.00;100810.69;5095010;28;20406;-70
2021/12/04 14:59:40;;;;;;;34.78;20.70;;;;;;;5.63;100.00;100821.91;5094718;28;20124;-70
2021/12/04 15:02:26;;;;;;;36.15;21.95;;;;;;;5.88;100.00;100811.63;5095440;28;20047;-70
2021/12/04 15:05:23;;;;;;;30.58;19.38;;;;;;;6.18;100.00;100800.44;5095766;28;20084;-69
2021/12/04 15:08:09;;;;;;;29.75;19.08;;;;;;;6.42;100.00;100806.50;5094853;28;20055;-70
2021/12/04 15:11:03;;;;;;;27.92;18.65;;;;;;;6.57;100.00;100803.03;5079707;28;20020;-70
2021/12/04 15:13:56;;;;;;;29.95;18.63;;;;;;;5.63;100.00;100808.91;5095445;28;20028;-70
2021/12/04 15:16:50;;;;;;;28.35;19.25;;;;;;;6.09;100.00;100811.69;5095508;28;20035;-71
2021/12/04 15:19:42;;;;;;;34.38;20.25;;;;;;;6.09;100.00;100816.00;5094721;28;20036;-70
2021/12/04 15:22:33;;;;;;;32.80;18.95;;;;;;;5.87;100.00;100811.63;5096278;28;20448;-70
2021/12/04 15:25:21;;;;;;;30.50;18.25;;;;;;;6.41;100.00;100814.31;5095875;28;20090;-70
2021/12/04 15:28:18;;;;;;;34.67;21.60;;;;;;;6.46;100.00;100805.66;5095431;28;20028;-70
2021/12/04 15:31:05;;;;;;;31.50;18.42;;;;;;;6.44;100.00;100809.13;5094887;28;20031;-71
2021/12/04 15:33:56;;;;;;;36.35;22.52;;;;;;;6.22;100.00;100816.03;5080167;28;20128;-69
2021/12/04 15:36:49;;;;;;;36.35;22.70;;;;;;;6.36;100.00;100814.34;5095123;28;20024;-70
2021/12/04 15:39:40;;;;;;;37.55;23.92;;;;;;;6.62;100.00;100807.38;5094192;28;20040;-70
2021/12/04 15:45:31;;;;;;;42.28;26.25;;;;;;;6.48;100.00;100816.06;5095711;28;20043;-70
2021/12/04 15:54:39;;;;;;;29.75;18.95;;;;;;;6.42;100.00;100822.13;5094950;28;20027;-70